createdAt,value
2019-02-18T00:01:27.468Z,6.70
2019-02-18T00:03:57.382Z,6.60
2019-02-18T00:06:27.518Z,6.60
2019-02-18T00:08:57.632Z,6.60
2019-02-18T00:11:27.756Z,6.60
2019-02-18T00:13:58.095Z,6.60
2019-02-18T00:16:28.168Z,6.60
2019-02-18T00:18:58.128Z,6.50
2019-02-18T00:21:28.446Z,6.50
2019-02-18T00:24:01.673Z,6.40
2019-02-18T00:26:31.056Z,6.40
2019-02-18T00:29:00.422Z,6.30
2019-02-18T00:31:30.647Z,6.30
2019-02-18T00:34:00.090Z,6.30
2019-02-18T00:36:29.534Z,6.30
2019-02-18T00:38:59.169Z,6.30
2019-02-18T00:41:29.256Z,6.20
2019-02-18T00:43:59.488Z,6.30
2019-02-18T00:46:29.572Z,6.20
2019-02-18T00:48:59.733Z,6.20
2019-02-18T00:51:29.814Z,6.20
2019-02-18T00:53:59.954Z,6.20
2019-02-18T00:56:30.042Z,6.20
2019-02-18T00:59:00.339Z,6.20
2019-02-18T01:01:32.532Z,6.20
2019-02-18T01:04:01.686Z,6.20
2019-02-18T01:06:31.969Z,6.20
2019-02-18T01:09:01.409Z,6.20
2019-02-18T01:11:32.207Z,6.20
2019-02-18T01:14:01.635Z,6.20
2019-02-18T01:16:31.306Z,6.20
2019-02-18T01:19:01.411Z,6.20
2019-02-18T01:21:31.678Z,6.20
2019-02-18T01:24:01.640Z,6.10
2019-02-18T01:26:31.808Z,6.10
2019-02-18T01:29:01.982Z,6.10
2019-02-18T01:31:32.134Z,6.00
2019-02-18T01:34:02.216Z,6.00
2019-02-18T01:36:32.366Z,5.90
2019-02-18T01:39:02.523Z,5.90
2019-02-18T01:41:32.948Z,5.80
2019-02-18T01:44:04.012Z,5.80
2019-02-18T01:46:33.556Z,5.80
2019-02-18T01:49:03.041Z,5.70
2019-02-18T01:51:33.265Z,5.70
2019-02-18T01:54:03.348Z,5.70
2019-02-18T01:56:33.375Z,5.70
2019-02-18T01:59:03.574Z,5.60
2019-02-18T02:01:33.753Z,5.60
2019-02-18T02:04:03.878Z,5.60
2019-02-18T02:06:33.369Z,5.50
2019-02-18T02:09:02.738Z,5.50
2019-02-18T02:11:32.529Z,5.40
2019-02-18T02:14:01.919Z,5.40
2019-02-18T02:16:31.344Z,5.40
2019-02-18T02:19:00.696Z,5.40
2019-02-18T02:21:30.155Z,5.30
2019-02-18T02:23:59.586Z,5.30
2019-02-18T02:26:29.017Z,5.30
2019-02-18T02:28:58.459Z,5.30
2019-02-18T02:31:27.927Z,5.30
2019-02-18T02:33:57.345Z,5.30
2019-02-18T02:36:26.710Z,5.30
2019-02-18T02:38:56.226Z,5.30
2019-02-18T02:41:25.676Z,5.20
2019-02-18T02:43:55.154Z,5.20
2019-02-18T02:46:24.599Z,5.20
2019-02-18T02:48:54.033Z,5.10
2019-02-18T02:51:23.483Z,5.10
2019-02-18T02:53:52.909Z,5.00
2019-02-18T02:56:22.350Z,5.00
2019-02-18T02:58:51.707Z,5.00
2019-02-18T03:01:21.348Z,4.90
2019-02-18T03:03:50.838Z,4.90
2019-02-18T03:06:24.062Z,4.90
2019-02-18T03:08:53.429Z,4.90
2019-02-18T03:11:22.862Z,4.90
2019-02-18T03:13:52.309Z,4.90
2019-02-18T03:16:21.758Z,4.90
2019-02-18T03:18:51.203Z,4.90
2019-02-18T03:21:20.646Z,4.80
2019-02-18T03:23:50.095Z,4.80
2019-02-18T03:26:19.536Z,4.80
2019-02-18T03:29:11.961Z,4.80
2019-02-18T03:31:41.398Z,4.80
2019-02-18T03:34:13.946Z,4.70
2019-02-18T03:36:43.371Z,4.70
2019-02-18T03:39:12.811Z,4.70
2019-02-18T03:41:42.255Z,4.80
2019-02-18T03:44:11.698Z,4.80
2019-02-18T03:46:41.193Z,4.80
2019-02-18T03:49:10.575Z,4.80
2019-02-18T03:51:40.037Z,4.90
2019-02-18T03:54:09.481Z,4.90
2019-02-18T03:56:41.252Z,4.90
2019-02-18T03:59:10.831Z,4.90
2019-02-18T04:01:40.372Z,4.80
2019-02-18T04:04:10.030Z,4.80
2019-02-18T04:06:40.056Z,4.70
2019-02-18T04:09:11.552Z,4.70
2019-02-18T04:11:40.944Z,4.70
2019-02-18T04:14:11.122Z,4.70
2019-02-18T04:16:41.659Z,4.60
2019-02-18T04:19:11.354Z,4.60
2019-02-18T04:21:41.593Z,4.60
2019-02-18T04:24:11.700Z,4.60
2019-02-18T04:26:41.839Z,4.50
2019-02-18T04:29:11.923Z,4.50
2019-02-18T04:31:42.060Z,4.40
2019-02-18T04:34:12.281Z,4.40
2019-02-18T04:36:42.394Z,4.40
2019-02-18T04:39:12.488Z,4.40
2019-02-18T04:41:42.629Z,4.40
2019-02-18T04:44:12.706Z,4.40
2019-02-18T04:46:42.838Z,4.50
2019-02-18T04:49:14.376Z,4.50
2019-02-18T04:51:43.808Z,4.50
2019-02-18T04:54:13.281Z,4.40
2019-02-18T04:56:44.015Z,4.30
2019-02-18T04:59:13.623Z,4.30
2019-02-18T05:01:43.836Z,4.30
2019-02-18T05:04:14.233Z,4.30
2019-02-18T05:06:45.348Z,4.20
2019-02-18T05:09:14.794Z,4.20
2019-02-18T05:11:44.340Z,4.20
2019-02-18T05:14:13.794Z,4.30
2019-02-18T05:16:43.220Z,4.30
2019-02-18T05:19:12.661Z,4.30
2019-02-18T05:21:42.095Z,4.30
2019-02-18T05:24:11.539Z,4.30
2019-02-18T05:26:40.891Z,4.30
2019-02-18T05:29:11.896Z,4.30
2019-02-18T05:31:41.345Z,4.30
2019-02-18T05:34:10.885Z,4.30
2019-02-18T05:36:43.249Z,4.30
2019-02-18T05:39:18.187Z,4.30
2019-02-18T05:41:43.762Z,4.30
2019-02-18T05:44:13.208Z,4.30
2019-02-18T05:46:42.623Z,4.40
2019-02-18T05:49:12.157Z,4.40
2019-02-18T05:51:41.528Z,4.40
2019-02-18T05:54:23.416Z,4.40
2019-02-18T05:56:52.855Z,4.40
2019-02-18T05:59:22.308Z,4.40
2019-02-18T06:01:51.760Z,4.40
2019-02-18T06:04:21.186Z,4.40
2019-02-18T06:06:50.617Z,4.40
2019-02-18T06:09:29.194Z,4.40
2019-02-18T06:11:51.109Z,4.40
2019-02-18T06:14:20.554Z,4.40
2019-02-18T06:16:49.980Z,4.40
2019-02-18T06:19:19.436Z,4.40
2019-02-18T06:21:49.119Z,4.40
2019-02-18T06:24:19.252Z,4.40
2019-02-18T06:26:49.328Z,4.40
2019-02-18T06:29:19.496Z,4.40
2019-02-18T06:31:49.696Z,4.50
2019-02-18T06:34:19.806Z,4.50
2019-02-18T06:36:49.930Z,4.60
2019-02-18T06:39:20.066Z,4.60
2019-02-18T06:41:50.163Z,4.60
2019-02-18T06:44:21.948Z,4.60
2019-02-18T06:46:53.034Z,4.60
2019-02-18T06:49:22.559Z,4.60
2019-02-18T06:51:51.998Z,4.70
2019-02-18T06:54:21.456Z,4.70
2019-02-18T06:56:55.509Z,4.70
2019-02-18T06:59:26.613Z,4.80
2019-02-18T07:01:57.678Z,4.80
2019-02-18T07:04:34.588Z,4.90
2019-02-18T07:07:05.902Z,4.90
2019-02-18T07:09:39.974Z,4.90
2019-02-18T07:12:11.144Z,5.00
2019-02-18T07:14:40.620Z,5.00
2019-02-18T07:17:10.561Z,5.10
2019-02-18T07:19:40.164Z,5.20
2019-02-18T07:22:09.602Z,5.20
2019-02-18T07:24:40.044Z,5.20
2019-02-18T07:27:09.482Z,5.30
2019-02-18T07:29:38.926Z,5.40
2019-02-18T07:32:08.386Z,5.40
2019-02-18T07:34:37.827Z,5.40
2019-02-18T07:37:07.354Z,5.50
2019-02-18T07:39:36.794Z,5.50
2019-02-18T07:42:06.236Z,5.60
2019-02-18T07:44:35.606Z,5.70
2019-02-18T07:47:05.195Z,5.70
2019-02-18T07:49:34.688Z,5.80
2019-02-18T07:52:04.136Z,5.80
2019-02-18T07:54:33.572Z,5.90
2019-02-18T07:57:03.021Z,5.90
2019-02-18T07:59:32.460Z,6.00
2019-02-18T08:02:03.539Z,6.00
2019-02-18T08:04:32.890Z,6.00
2019-02-18T08:07:02.338Z,6.10
2019-02-18T08:09:31.765Z,6.10
2019-02-18T08:12:01.203Z,6.20
2019-02-18T08:14:30.649Z,6.30
2019-02-18T08:17:00.120Z,6.30
2019-02-18T08:19:29.553Z,6.40
2019-02-18T08:21:59.005Z,6.40
2019-02-18T08:24:28.461Z,6.50
2019-02-18T08:26:57.929Z,6.60
2019-02-18T08:29:27.387Z,6.70
2019-02-18T08:31:56.799Z,6.80
2019-02-18T08:34:26.355Z,6.80
2019-02-18T08:36:56.443Z,6.90
2019-02-18T08:39:26.736Z,7.00
2019-02-18T08:41:56.796Z,7.00
2019-02-18T08:44:26.913Z,7.10
2019-02-18T08:46:57.021Z,7.10
2019-02-18T08:49:27.261Z,7.20
2019-02-18T08:51:57.253Z,7.30
2019-02-18T08:54:27.349Z,7.40
2019-02-18T08:56:57.487Z,7.50
2019-02-18T08:59:27.704Z,7.60
2019-02-18T09:01:57.832Z,7.70
2019-02-18T09:04:28.233Z,7.80
2019-02-18T09:06:58.040Z,7.90
2019-02-18T09:09:28.193Z,8.00
2019-02-18T09:11:58.307Z,8.10
2019-02-18T09:14:31.121Z,8.30
2019-02-18T09:17:00.545Z,8.30
2019-02-18T09:19:29.911Z,8.40
2019-02-18T09:22:00.980Z,8.50
2019-02-18T09:24:32.019Z,8.60
2019-02-18T09:27:02.431Z,8.70
2019-02-18T09:29:31.882Z,8.90
2019-02-18T09:32:02.481Z,9.00
2019-02-18T09:34:32.943Z,9.10
2019-02-18T09:37:02.353Z,9.20
2019-02-18T09:39:31.899Z,9.30
2019-02-18T09:42:01.367Z,9.40
2019-02-18T09:44:30.808Z,9.50
2019-02-18T09:47:00.258Z,9.70
2019-02-18T09:49:30.159Z,9.80
2019-02-18T09:52:00.303Z,9.90
2019-02-18T09:54:30.375Z,10.00
2019-02-18T09:57:00.525Z,10.20
2019-02-18T09:59:30.621Z,10.20
2019-02-18T10:02:00.856Z,10.30
2019-02-18T10:04:30.949Z,10.40
2019-02-18T10:07:01.094Z,10.50
2019-02-18T10:09:31.191Z,10.60
2019-02-18T10:12:01.336Z,10.60
2019-02-18T10:14:31.504Z,10.70
2019-02-18T10:17:01.569Z,10.80
2019-02-18T10:19:31.670Z,10.80
2019-02-18T10:22:04.451Z,10.90
2019-02-18T10:24:33.904Z,11.00
2019-02-18T10:27:03.541Z,11.10
2019-02-18T10:29:32.965Z,11.20
2019-02-18T10:32:02.435Z,11.40
2019-02-18T10:34:32.636Z,11.50
2019-02-18T10:37:02.695Z,11.60
2019-02-18T10:39:32.786Z,11.60
2019-02-18T10:42:03.008Z,11.70
2019-02-18T10:44:33.014Z,11.80
2019-02-18T10:47:03.228Z,11.80
2019-02-18T10:49:33.324Z,11.90
2019-02-18T10:52:03.499Z,11.90
2019-02-18T10:54:33.579Z,12.00
2019-02-18T10:57:03.864Z,12.10
2019-02-18T10:59:33.919Z,12.20
2019-02-18T11:02:04.788Z,12.30
2019-02-18T11:04:36.039Z,12.40
2019-02-18T11:07:05.573Z,12.40
2019-02-18T11:09:35.034Z,12.50
2019-02-18T11:12:04.681Z,12.60
2019-02-18T11:14:34.645Z,12.70
2019-02-18T11:17:06.180Z,12.80
2019-02-18T11:19:35.594Z,13.00
2019-02-18T11:22:05.114Z,13.00
2019-02-18T11:24:35.102Z,13.10
2019-02-18T11:27:05.204Z,13.20
2019-02-18T11:29:35.442Z,13.30
2019-02-18T11:32:05.712Z,13.40
2019-02-18T11:34:36.160Z,13.50
2019-02-18T11:37:05.776Z,13.60
2019-02-18T11:39:35.916Z,13.60
2019-02-18T11:42:05.978Z,13.70
2019-02-18T11:44:36.400Z,13.70
2019-02-18T11:47:06.229Z,13.80
2019-02-18T11:49:36.456Z,13.90
2019-02-18T11:52:06.659Z,14.00
2019-02-18T11:54:36.721Z,14.10
2019-02-18T11:57:06.824Z,14.20
2019-02-18T11:59:36.963Z,14.30
2019-02-18T12:02:07.054Z,14.30
2019-02-18T12:04:37.205Z,14.30
2019-02-18T12:07:07.306Z,14.40
2019-02-18T12:09:37.432Z,14.40
2019-02-18T12:12:07.536Z,14.50
2019-02-18T12:14:37.652Z,14.50
2019-02-18T12:17:07.769Z,14.60
2019-02-18T12:19:37.900Z,14.60
2019-02-18T12:22:08.078Z,14.50
2019-02-18T12:24:39.233Z,14.60
2019-02-18T12:27:08.778Z,14.60
2019-02-18T12:29:38.464Z,14.70
2019-02-18T12:32:08.561Z,14.70
2019-02-18T12:34:38.672Z,14.80
2019-02-18T12:37:08.866Z,14.80
2019-02-18T12:39:40.826Z,14.90
2019-02-18T12:42:10.192Z,15.00
2019-02-18T12:44:39.796Z,15.00
2019-02-18T12:47:09.653Z,15.00
2019-02-18T12:49:39.493Z,15.00
2019-02-18T12:52:09.674Z,15.10
2019-02-18T12:54:39.746Z,15.10
2019-02-18T12:57:09.898Z,15.10
2019-02-18T12:59:40.026Z,15.10
2019-02-18T13:02:10.204Z,15.20
2019-02-18T13:04:40.353Z,15.20
2019-02-18T13:07:12.861Z,15.20
2019-02-18T13:09:42.373Z,15.20
2019-02-18T13:12:11.872Z,15.30
2019-02-18T13:14:41.339Z,15.30
2019-02-18T13:17:11.022Z,15.40
2019-02-18T13:19:41.098Z,15.40
2019-02-18T13:22:11.337Z,15.40
2019-02-18T13:24:41.330Z,15.40
2019-02-18T13:27:13.064Z,15.40
2019-02-18T13:29:42.534Z,15.50
2019-02-18T13:32:12.101Z,15.50
2019-02-18T13:34:42.984Z,15.60
2019-02-18T13:37:12.981Z,15.60
2019-02-18T13:39:42.426Z,15.60
2019-02-18T13:42:12.235Z,15.60
2019-02-18T13:44:42.377Z,15.60
2019-02-18T13:47:12.474Z,15.60
2019-02-18T13:49:42.694Z,15.60
2019-02-18T13:52:12.875Z,15.60
2019-02-18T13:54:43.311Z,15.60
2019-02-18T13:57:13.027Z,15.60
2019-02-18T13:59:43.260Z,15.50
2019-02-18T14:02:13.369Z,15.50
2019-02-18T14:04:43.553Z,15.40
2019-02-18T14:07:13.626Z,15.40
2019-02-18T14:09:46.878Z,15.40
2019-02-18T14:12:16.553Z,15.40
2019-02-18T14:14:46.105Z,15.40
2019-02-18T14:17:16.042Z,15.30
2019-02-18T14:19:45.473Z,15.30
2019-02-18T14:22:15.163Z,15.30
2019-02-18T14:24:45.675Z,15.30
2019-02-18T14:27:15.157Z,15.20
2019-02-18T14:29:44.823Z,15.20
2019-02-18T14:32:14.898Z,15.20
2019-02-18T14:34:45.136Z,15.20
2019-02-18T14:37:15.211Z,15.20
2019-02-18T14:39:45.212Z,15.10
2019-02-18T14:42:15.421Z,15.10
2019-02-18T14:44:45.646Z,15.10
2019-02-18T14:47:15.685Z,15.00
2019-02-18T14:49:45.883Z,15.00
2019-02-18T14:52:16.359Z,15.00
2019-02-18T14:54:46.086Z,15.00
2019-02-18T14:57:17.858Z,15.10
2019-02-18T14:59:47.292Z,15.10
2019-02-18T15:02:16.825Z,15.10
2019-02-18T15:04:46.486Z,15.10
2019-02-18T15:07:16.732Z,15.10
2019-02-18T15:09:46.842Z,15.10
2019-02-18T15:12:17.143Z,15.00
2019-02-18T15:14:47.065Z,15.00
2019-02-18T15:17:17.272Z,14.90
2019-02-18T15:19:47.315Z,14.80
2019-02-18T15:22:17.517Z,14.70
2019-02-18T15:24:47.636Z,14.60
2019-02-18T15:27:17.839Z,14.50
2019-02-18T15:29:47.872Z,14.50
2019-02-18T15:32:18.137Z,14.40
2019-02-18T15:34:48.123Z,14.40
2019-02-18T15:37:18.390Z,14.30
2019-02-18T15:39:48.487Z,14.20
2019-02-18T15:42:18.617Z,14.10
2019-02-18T15:44:48.729Z,14.00
2019-02-18T15:47:18.970Z,13.90
2019-02-18T15:49:49.110Z,13.90
2019-02-18T15:52:19.084Z,13.70
2019-02-18T15:54:49.173Z,13.60
2019-02-18T15:57:19.309Z,13.50
2019-02-18T15:59:49.619Z,13.40
2019-02-18T16:02:22.737Z,13.30
2019-02-18T16:04:52.175Z,13.20
2019-02-18T16:07:22.017Z,13.10
2019-02-18T16:09:54.425Z,13.00
2019-02-18T16:12:23.945Z,12.80
2019-02-18T16:14:53.381Z,12.70
2019-02-18T16:17:22.843Z,12.50
2019-02-18T16:19:52.287Z,12.40
2019-02-18T16:22:22.045Z,12.30
2019-02-18T16:24:51.503Z,12.20
2019-02-18T16:27:20.979Z,12.00
2019-02-18T16:29:52.907Z,12.00
2019-02-18T16:32:22.360Z,11.80
2019-02-18T16:34:51.804Z,11.70
2019-02-18T16:37:22.521Z,11.60
2019-02-18T16:39:51.969Z,11.50
2019-02-18T16:42:21.780Z,11.50
2019-02-18T16:44:51.997Z,11.40
2019-02-18T16:47:22.144Z,11.30
2019-02-18T16:49:52.142Z,11.20
2019-02-18T16:52:22.325Z,11.10
2019-02-18T16:54:55.529Z,11.00
2019-02-18T16:57:24.989Z,10.90
2019-02-18T16:59:54.443Z,10.90
2019-02-18T17:02:23.907Z,10.80
2019-02-18T17:04:53.421Z,10.70
2019-02-18T17:07:23.107Z,10.70
2019-02-18T17:09:53.288Z,10.60
2019-02-18T17:12:23.711Z,10.60
2019-02-18T17:14:54.631Z,10.50
2019-02-18T17:17:24.305Z,10.50
2019-02-18T17:19:53.916Z,10.40
2019-02-18T17:22:23.970Z,10.40
2019-02-18T17:24:54.058Z,10.30
2019-02-18T17:27:24.225Z,10.30
2019-02-18T17:29:54.314Z,10.20
2019-02-18T17:32:24.439Z,10.20
2019-02-18T17:34:54.582Z,10.10
2019-02-18T17:37:24.775Z,10.10
2019-02-18T17:39:54.905Z,10.10
2019-02-18T17:42:25.021Z,10.10
2019-02-18T17:44:55.124Z,10.10
2019-02-18T17:47:26.218Z,10.10
2019-02-18T17:49:55.744Z,10.10
2019-02-18T17:52:25.669Z,10.10
2019-02-18T17:54:55.833Z,10.10
2019-02-18T17:57:27.412Z,10.00
2019-02-18T17:59:57.164Z,10.00
2019-02-18T18:02:26.627Z,10.00
2019-02-18T18:04:56.780Z,9.90
2019-02-18T18:07:26.876Z,9.90
2019-02-18T18:09:59.560Z,9.80
2019-02-18T18:12:29.034Z,9.80
2019-02-18T18:14:58.796Z,9.70
2019-02-18T18:17:28.317Z,9.70
2019-02-18T18:19:57.790Z,9.60
2019-02-18T18:22:27.688Z,9.60
2019-02-18T18:24:57.834Z,9.50
2019-02-18T18:27:27.935Z,9.50
2019-02-18T18:29:58.098Z,9.40
2019-02-18T18:32:28.133Z,9.30
2019-02-18T18:34:58.506Z,9.30
2019-02-18T18:37:28.978Z,9.30
2019-02-18T18:39:58.558Z,9.20
2019-02-18T18:42:28.711Z,9.20
2019-02-18T18:44:58.944Z,9.20
2019-02-18T18:47:29.040Z,9.20
2019-02-18T18:49:59.168Z,9.10
2019-02-18T18:52:29.265Z,9.00
2019-02-18T18:54:59.790Z,8.90
2019-02-18T18:57:29.420Z,8.90
2019-02-18T18:59:59.521Z,8.80
2019-02-18T19:02:29.220Z,8.70
2019-02-18T19:04:58.688Z,8.60
2019-02-18T19:07:28.115Z,8.50
2019-02-18T19:09:58.058Z,8.40
2019-02-18T19:12:27.628Z,8.40
2019-02-18T19:14:57.082Z,8.30
2019-02-18T19:17:26.630Z,8.20
2019-02-18T19:19:57.807Z,8.20
2019-02-18T19:22:28.326Z,8.20
2019-02-18T19:24:59.924Z,8.20
2019-02-18T19:27:29.446Z,8.20
2019-02-18T19:29:58.929Z,8.20
2019-02-18T19:32:28.789Z,8.20
2019-02-18T19:34:59.282Z,8.20
2019-02-18T19:37:30.459Z,8.10
2019-02-18T19:40:03.159Z,8.10
2019-02-18T19:42:32.678Z,8.00
2019-02-18T19:45:04.727Z,7.90
2019-02-18T19:47:34.864Z,7.90
2019-02-18T19:50:05.756Z,7.80
2019-02-18T19:52:36.186Z,7.80
2019-02-18T19:55:08.874Z,7.70
2019-02-18T19:57:38.394Z,7.70
2019-02-18T20:00:18.427Z,7.70
2019-02-18T20:02:48.156Z,7.60
2019-02-18T20:05:17.711Z,7.60
2019-02-18T20:07:47.316Z,7.60
2019-02-18T20:10:17.824Z,7.60
2019-02-18T20:12:48.867Z,7.50
2019-02-18T20:15:18.351Z,7.50
2019-02-18T20:17:47.851Z,7.40
2019-02-18T20:20:20.551Z,7.40
2019-02-18T20:22:51.651Z,7.40
2019-02-18T20:25:22.300Z,7.40
2019-02-18T20:27:51.749Z,7.30
2019-02-18T20:30:23.225Z,7.30
2019-02-18T20:32:52.660Z,7.30
2019-02-18T20:35:23.103Z,7.20
2019-02-18T20:37:54.092Z,7.10
2019-02-18T20:40:24.122Z,7.10
2019-02-18T20:42:54.120Z,7.10
2019-02-18T20:45:23.772Z,7.10
2019-02-18T20:47:53.236Z,7.00
2019-02-18T20:50:23.646Z,7.00
2019-02-18T20:52:53.183Z,6.90
2019-02-18T20:55:23.213Z,6.90
2019-02-18T20:57:52.760Z,6.90
2019-02-18T21:00:22.281Z,6.90
2019-02-18T21:02:53.422Z,7.00
2019-02-18T21:05:22.928Z,7.00
2019-02-18T21:07:54.367Z,6.90
2019-02-18T21:10:24.309Z,6.90
2019-02-18T21:12:53.935Z,6.90
2019-02-18T21:15:25.412Z,6.90
2019-02-18T21:17:54.597Z,6.90
2019-02-18T21:20:24.191Z,6.90
2019-02-18T21:22:54.023Z,6.90
2019-02-18T21:25:23.477Z,7.00
2019-02-18T21:27:52.940Z,7.00
2019-02-18T21:30:22.677Z,7.00
2019-02-18T21:32:52.139Z,7.10
2019-02-18T21:35:28.506Z,7.10
2019-02-18T21:38:15.246Z,7.10
2019-02-18T21:40:59.749Z,7.10
2019-02-18T21:43:46.197Z,7.10
2019-02-18T21:46:31.432Z,7.10
2019-02-18T21:49:19.924Z,7.00
2019-02-18T21:52:06.124Z,7.00
2019-02-18T21:54:47.243Z,7.00
2019-02-18T21:57:18.789Z,7.00
2019-02-18T21:59:48.243Z,7.10
2019-02-18T22:02:17.758Z,7.00
2019-02-18T22:04:47.234Z,7.10
2019-02-18T22:07:16.670Z,7.10
2019-02-18T22:09:46.138Z,7.10
2019-02-18T22:12:15.577Z,7.10
2019-02-18T22:14:45.997Z,7.10
2019-02-18T22:17:15.445Z,7.10
2019-02-18T22:19:44.873Z,7.10
2019-02-18T22:22:14.354Z,7.10
2019-02-18T22:24:43.807Z,7.00
2019-02-18T22:27:13.538Z,7.00
2019-02-18T22:29:42.995Z,7.00
2019-02-18T22:32:12.451Z,7.00
2019-02-18T22:34:41.876Z,7.10
2019-02-18T22:37:11.310Z,7.10
2019-02-18T22:39:40.752Z,7.10
2019-02-18T22:42:10.419Z,7.10
2019-02-18T22:44:41.910Z,7.20
2019-02-18T22:47:10.997Z,7.20
2019-02-18T22:49:40.437Z,7.30
2019-02-18T22:52:09.887Z,7.30
2019-02-18T22:54:39.359Z,7.30
2019-02-18T22:57:09.215Z,7.40
2019-02-18T22:59:38.664Z,7.30
2019-02-18T23:02:09.361Z,7.30
2019-02-18T23:04:39.857Z,7.30
2019-02-18T23:07:09.367Z,7.30
2019-02-18T23:09:38.887Z,7.30
2019-02-18T23:12:09.817Z,7.20
2019-02-18T23:14:39.307Z,7.10
2019-02-18T23:17:08.752Z,7.10
2019-02-18T23:19:39.200Z,7.00
2019-02-18T23:22:08.643Z,7.00
2019-02-18T23:24:38.391Z,6.90
2019-02-18T23:27:08.299Z,6.90
2019-02-18T23:29:40.789Z,6.80
2019-02-18T23:32:10.280Z,6.80
2019-02-18T23:34:39.719Z,6.80
2019-02-18T23:37:09.274Z,6.80
2019-02-18T23:39:38.735Z,6.80
2019-02-18T23:42:08.283Z,6.70
2019-02-18T23:44:37.737Z,6.70
2019-02-18T23:47:07.179Z,6.60
2019-02-18T23:49:36.642Z,6.50
2019-02-18T23:52:06.771Z,6.50
2019-02-18T23:54:36.237Z,6.50
2019-02-18T23:57:05.750Z,6.50
2019-02-18T23:59:35.314Z,6.50
